Time;durP1;ratioP1;P1;durP2;ratioP2;P2;SDS_P1;SDS_P2;PMS_P1;PMS_P2;Temp;Humidity;BMP_temperature;BMP_pressure;BME280_temperature;BME280_humidity;BME280_pressure;Samples;Min_cycle;Max_cycle;Signal;HPM_P1;HPM_P2
2022/04/06 00:01:31;;;;;;;10.65;9.25;;;;;;;12.11;63.08;100503.03;4988371;28;102497;-84
2022/04/06 00:03:57;;;;;;;11.43;9.75;;;;;;;12.13;63.50;100524.59;4996227;28;102516;-84
2022/04/06 00:06:24;;;;;;;11.75;9.32;;;;;;;12.12;63.16;100517.50;4995340;28;104151;-84
2022/04/06 00:08:56;;;;;;;11.35;9.23;;;;;;;12.12;63.30;100515.59;4995970;28;101966;-84
2022/04/06 00:11:23;;;;;;;11.75;10.05;;;;;;;12.13;63.40;100532.78;4993538;28;102045;-84
2022/04/06 00:14:05;;;;;;;13.63;9.70;;;;;;;12.13;63.14;100533.59;4995596;28;101833;-84
2022/04/06 00:16:33;;;;;;;11.90;9.43;;;;;;;12.12;63.15;100531.97;4994168;28;104259;-84
2022/04/06 00:19:03;;;;;;;10.68;9.48;;;;;;;12.12;63.29;100537.41;4995438;28;102268;-84
2022/04/06 00:21:30;;;;;;;12.02;10.02;;;;;;;12.12;63.24;100537.41;4994512;28;102115;-84
2022/04/06 00:24:13;;;;;;;13.48;9.40;;;;;;;12.12;63.51;100539.34;4996093;28;102051;-84
2022/04/06 00:26:40;;;;;;;10.75;9.30;;;;;;;12.12;63.63;100536.59;4994381;28;104107;-84
2022/04/06 00:29:09;;;;;;;11.07;9.90;;;;;;;12.12;63.51;100540.16;4976156;28;101993;-84
2022/04/06 00:31:37;;;;;;;12.25;9.75;;;;;;;12.12;63.53;100542.88;4989602;28;101958;-84
2022/04/06 00:34:03;;;;;;;10.40;9.23;;;;;;;12.12;63.35;100548.34;4995792;28;102383;-84
2022/04/06 00:36:30;;;;;;;11.90;9.32;;;;;;;12.12;63.56;100551.06;4994566;28;103887;-84
2022/04/06 00:38:57;;;;;;;11.73;10.00;;;;;;;12.12;63.57;100542.88;4993643;28;102628;-84
2022/04/06 00:41:24;;;;;;;12.82;10.35;;;;;;;12.12;63.54;100553.78;4989885;28;102461;-83
2022/04/06 00:44:13;;;;;;;11.17;9.60;;;;;;;12.13;63.56;100560.06;4991374;28;102460;-82
2022/04/06 00:46:42;;;;;;;11.80;9.60;;;;;;;12.13;63.51;100562.78;5012286;28;103927;-82
2022/04/06 00:49:11;;;;;;;10.35;8.82;;;;;;;12.11;63.49;100557.59;4995831;28;101890;-82
2022/04/06 00:51:39;;;;;;;10.82;9.40;;;;;;;12.13;63.54;100560.88;4989748;28;102746;-82
2022/04/06 00:54:06;;;;;;;11.27;10.07;;;;;;;12.12;63.63;100553.78;4978885;28;102174;-82
2022/04/06 00:56:34;;;;;;;10.52;9.38;;;;;;;12.12;63.40;100552.97;4991553;28;103980;-84
2022/04/06 00:59:02;;;;;;;10.32;9.15;;;;;;;12.11;63.86;100554.06;4993463;28;102042;-84
2022/04/06 01:01:29;;;;;;;12.05;10.32;;;;;;;12.12;63.76;100556.50;4975463;28;102729;-84
2022/04/06 01:03:57;;;;;;;12.18;10.07;;;;;;;12.12;63.47;100563.88;4975883;28;102400;-84
2022/04/06 01:06:23;;;;;;;11.23;9.47;;;;;;;12.13;63.59;100557.31;4992407;28;104022;-84
2022/04/06 01:08:51;;;;;;;12.77;10.27;;;;;;;12.12;63.58;100559.25;4984210;28;102590;-84
2022/04/06 01:11:18;;;;;;;11.70;10.57;;;;;;;12.12;63.92;100561.16;4991869;28;102150;-84
2022/04/06 01:13:45;;;;;;;11.25;10.02;;;;;;;12.12;63.65;100559.25;4995011;28;102410;-84
2022/04/06 01:16:13;;;;;;;12.40;10.75;;;;;;;12.11;63.51;100552.13;4994666;28;104042;-84
2022/04/06 01:18:41;;;;;;;11.55;10.27;;;;;;;12.12;63.69;100559.25;4995627;28;102185;-83
2022/04/06 01:21:12;;;;;;;11.30;10.10;;;;;;;12.11;63.24;100557.59;4994490;28;102373;-82
2022/04/06 01:23:41;;;;;;;11.88;9.75;;;;;;;12.11;64.09;100563.06;4996058;28;102498;-83
2022/04/06 01:26:09;;;;;;;12.50;11.20;;;;;;;12.11;63.86;100554.88;4994473;28;103936;-82
2022/04/06 01:28:36;;;;;;;12.00;10.18;;;;;;;12.12;63.66;100559.25;4995130;28;101997;-83
2022/04/06 01:31:02;;;;;;;11.18;9.43;;;;;;;12.12;63.59;100561.97;4994405;28;102572;-82
2022/04/06 01:33:31;;;;;;;11.18;9.70;;;;;;;12.13;63.83;100560.06;4995226;28;102208;-83
2022/04/06 01:35:58;;;;;;;11.20;9.52;;;;;;;12.11;63.46;100571.22;4992641;28;104038;-84
2022/04/06 01:38:26;;;;;;;11.40;10.27;;;;;;;12.13;63.70;100568.25;4992475;28;102519;-84
2022/04/06 01:40:54;;;;;;;11.88;10.43;;;;;;;12.12;63.86;100570.16;4989488;28;101939;-84
2022/04/06 01:43:22;;;;;;;11.98;10.32;;;;;;;12.12;63.62;100570.16;4995868;28;102416;-85
2022/04/06 01:45:52;;;;;;;13.00;10.32;;;;;;;12.12;63.97;100569.34;4994875;28;104148;-85
2022/04/06 01:48:19;;;;;;;14.15;11.02;;;;;;;12.12;63.59;100563.88;4995187;28;101944;-84
2022/04/06 01:53:32;;;;;;;12.07;10.68;;;;;;;12.12;63.65;100564.69;4977651;28;102143;-83
2022/04/06 01:56:00;;;;;;;11.63;10.27;;;;;;;12.12;63.62;100569.34;4991190;28;104317;-83
2022/04/06 01:58:26;;;;;;;11.52;10.32;;;;;;;12.11;63.77;100568.50;4994594;28;102172;-83
2022/04/06 02:00:53;;;;;;;15.65;10.82;;;;;;;12.11;63.67;100573.16;4986955;28;102072;-83
2022/04/06 02:03:20;;;;;;;10.70;9.57;;;;;;;12.10;63.77;100572.34;4983259;28;102682;-83
2022/04/06 02:05:46;;;;;;;11.07;9.70;;;;;;;12.12;63.59;100575.59;4996216;28;103958;-83
2022/04/06 02:08:13;;;;;;;12.65;10.27;;;;;;;12.12;63.95;100580.25;4992264;28;101996;-83
2022/04/06 02:10:39;;;;;;;12.60;10.70;;;;;;;12.11;63.86;100590.31;4996464;28;101982;-83
2022/04/06 02:13:07;;;;;;;12.05;10.70;;;;;;;12.11;63.54;100589.50;4996548;28;102009;-83
2022/04/06 02:15:34;;;;;;;11.43;10.10;;;;;;;12.12;63.71;100586.53;4996701;28;103981;-83
2022/04/06 02:18:02;;;;;;;12.73;11.15;;;;;;;12.11;63.78;100590.31;4997188;28;102005;-83
2022/04/06 02:20:29;;;;;;;14.40;11.88;;;;;;;12.12;64.00;100596.63;4995898;28;102481;-83
2022/04/06 02:22:56;;;;;;;13.02;11.25;;;;;;;12.10;63.83;100594.16;4997417;28;102632;-83
2022/04/06 02:25:23;;;;;;;16.42;11.85;;;;;;;12.11;63.83;100584.06;4996422;28;103997;-83
2022/04/06 02:27:51;;;;;;;13.65;10.60;;;;;;;12.10;63.81;100588.72;4996188;28;102440;-83
2022/04/06 02:30:20;;;;;;;12.93;11.27;;;;;;;12.11;63.82;100595.78;4995666;28;101970;-83
2022/04/06 02:32:47;;;;;;;15.10;11.05;;;;;;;12.10;63.77;100599.63;4993125;28;102311;-83
2022/04/06 02:35:15;;;;;;;13.70;11.45;;;;;;;12.11;63.83;100595.78;4991808;28;103889;-83
2022/04/06 02:37:43;;;;;;;16.27;12.90;;;;;;;12.10;63.89;100599.63;4992409;28;102664;-83
2022/04/06 02:40:12;;;;;;;14.23;12.80;;;;;;;12.11;64.10;100606.69;4992111;28;102564;-83
2022/04/06 02:42:39;;;;;;;16.77;12.35;;;;;;;12.10;63.54;100605.06;4991850;28;102352;-83
2022/04/06 02:45:07;;;;;;;16.10;12.15;;;;;;;12.10;64.06;100605.06;4989492;28;103170;-83
2022/04/06 02:47:36;;;;;;;12.15;10.95;;;;;;;12.10;63.64;100604.25;4981358;28;102041;-85
2022/04/06 02:50:04;;;;;;;14.60;11.85;;;;;;;12.10;64.05;100612.44;4972734;28;101933;-85
2022/04/06 02:52:30;;;;;;;15.38;12.38;;;;;;;12.09;63.97;100608.91;4987515;28;102737;-83
2022/04/06 02:54:57;;;;;;;13.95;12.43;;;;;;;12.10;64.12;100620.63;4984567;28;103912;-84
2022/04/06 02:57:24;;;;;;;14.50;12.98;;;;;;;12.08;63.95;100607.28;4977979;28;102267;-84
2022/04/06 02:59:51;;;;;;;14.48;12.85;;;;;;;12.09;64.17;100621.75;4982584;28;102135;-84
2022/04/06 03:02:17;;;;;;;14.95;12.60;;;;;;;12.09;64.29;100624.47;4990269;28;102514;-84
2022/04/06 03:04:47;;;;;;;14.20;12.77;;;;;;;12.10;64.16;100621.44;4975436;28;103920;-84
2022/04/06 03:07:18;;;;;;;14.77;12.30;;;;;;;12.08;63.79;100623.66;4990275;28;102330;-84
2022/04/06 03:09:45;;;;;;;16.70;13.27;;;;;;;12.08;63.87;100634.56;4976233;28;102657;-84
2022/04/06 03:12:12;;;;;;;13.65;12.07;;;;;;;12.08;63.86;100625.53;4993514;28;102209;-85
2022/04/06 03:14:40;;;;;;;16.48;12.15;;;;;;;12.09;63.75;100629.91;4973761;28;103927;-84
2022/04/06 03:17:07;;;;;;;15.55;13.77;;;;;;;12.08;64.04;100633.72;4972652;28;102447;-86
2022/04/06 03:19:33;;;;;;;12.93;11.27;;;;;;;12.07;64.16;100637.56;4991175;28;102430;-85
2022/04/06 03:22:02;;;;;;;14.75;12.50;;;;;;;12.07;64.24;100635.66;4992420;28;102281;-85
2022/04/06 03:24:40;;;;;;;14.05;12.50;;;;;;;12.08;63.84;100644.63;4992072;28;104027;-83
2022/04/06 03:27:08;;;;;;;16.05;12.73;;;;;;;12.07;64.08;100640.28;4975789;28;102059;-84
2022/04/06 03:29:35;;;;;;;14.20;12.63;;;;;;;12.08;64.10;100655.53;4980586;28;102383;-84
2022/04/06 03:32:01;;;;;;;15.23;13.15;;;;;;;12.07;64.19;100645.75;4982019;28;102323;-84
2022/04/06 03:34:28;;;;;;;13.57;12.18;;;;;;;12.06;64.33;100647.66;4993214;28;104233;-84
2022/04/06 03:36:54;;;;;;;14.77;12.90;;;;;;;12.06;63.88;100647.66;4995045;28;102396;-84
2022/04/06 03:39:22;;;;;;;14.88;12.88;;;;;;;12.06;64.30;100650.38;4990129;28;102397;-84
2022/04/06 03:41:50;;;;;;;;;;;;;;;12.06;63.88;100653.13;4991167;28;102125;-84
2022/04/06 03:44:17;;;;;;;16.20;13.43;;;;;;;12.05;64.14;100648.75;4992291;28;104403;-84
2022/04/06 03:46:43;;;;;;;15.70;13.10;;;;;;;12.06;64.09;100652.31;4994602;28;102425;-83
2022/04/06 03:49:10;;;;;;;14.48;12.55;;;;;;;12.06;64.54;100657.75;4994942;28;102026;-84
2022/04/06 03:51:37;;;;;;;14.65;12.75;;;;;;;12.05;64.07;100662.41;4985725;28;102058;-83
2022/04/06 03:54:06;;;;;;;15.82;13.95;;;;;;;12.06;64.16;100666.75;4974720;28;104508;-84
2022/04/06 03:56:34;;;;;;;15.07;13.48;;;;;;;12.05;64.43;100667.84;4975055;28;102430;-84
2022/04/06 03:59:01;;;;;;;16.38;12.32;;;;;;;12.05;64.08;100673.31;4974904;28;102790;-84
2022/04/06 04:01:30;;;;;;;16.25;13.23;;;;;;;12.05;64.15;100662.41;4975509;28;102114;-83
2022/04/06 04:03:56;;;;;;;14.68;13.02;;;;;;;12.06;64.13;100674.94;4993762;28;103897;-84
2022/04/06 04:06:25;;;;;;;14.30;12.70;;;;;;;12.05;64.01;100678.78;4995097;28;102337;-84
2022/04/06 04:08:52;;;;;;;15.65;13.35;;;;;;;12.04;64.36;100677.13;4994660;28;102649;-83
2022/04/06 04:11:20;;;;;;;15.05;13.25;;;;;;;12.04;64.12;100682.56;4995519;28;102083;-84
2022/04/06 04:13:48;;;;;;;15.68;13.93;;;;;;;12.05;64.24;100684.22;4992971;28;103886;-83
2022/04/06 04:16:15;;;;;;;13.90;12.02;;;;;;;12.05;64.09;100683.41;4993711;28;102022;-83
2022/04/06 04:18:43;;;;;;;15.55;12.35;;;;;;;12.04;64.21;100685.31;4993103;28;102415;-84
2022/04/06 04:21:32;;;;;;;15.73;13.13;;;;;;;12.03;64.16;100691.88;4993765;28;102093;-84
2022/04/06 04:24:00;;;;;;;15.20;13.40;;;;;;;12.05;64.17;100691.59;4994638;28;103988;-85
2022/04/06 04:26:27;;;;;;;16.45;12.85;;;;;;;12.03;64.35;100691.88;4994002;28;102363;-84
2022/04/06 04:28:55;;;;;;;15.77;13.15;;;;;;;12.04;64.10;100698.94;4993568;28;102600;-84
2022/04/06 04:31:22;;;;;;;17.63;14.57;;;;;;;12.04;64.19;100698.94;4993719;28;102272;-83
2022/04/06 04:33:49;;;;;;;16.77;13.98;;;;;;;12.04;64.13;100704.41;4993233;28;104171;-84
2022/04/06 04:36:15;;;;;;;15.45;13.35;;;;;;;12.03;64.13;100703.59;4992879;28;102532;-84
2022/04/06 04:38:43;;;;;;;15.30;13.70;;;;;;;12.04;63.96;100709.84;4992984;28;102072;-84
2022/04/06 04:41:09;;;;;;;16.92;14.65;;;;;;;12.03;64.11;100717.22;4993049;28;102272;-84
2022/04/06 04:43:36;;;;;;;14.38;12.88;;;;;;;12.04;64.19;100726.22;4993696;28;103897;-84
2022/04/06 04:46:05;;;;;;;15.77;14.05;;;;;;;12.03;64.29;100719.94;4987673;28;103299;-84
2022/04/06 04:48:34;;;;;;;15.60;14.00;;;;;;;12.05;63.88;100732.50;4977096;28;103701;-84
2022/04/06 04:51:00;;;;;;;14.90;13.30;;;;;;;12.04;64.25;100726.22;4994475;28;102270;-84
2022/04/06 04:53:30;;;;;;;14.68;12.38;;;;;;;12.04;63.84;100731.66;4992883;28;104177;-82
2022/04/06 04:55:57;;;;;;;15.70;13.75;;;;;;;12.04;64.18;100731.66;4978735;28;102516;-82
2022/04/06 04:58:24;;;;;;;15.40;13.57;;;;;;;12.04;64.29;100726.22;4973952;28;102114;-82
2022/04/06 05:00:56;;;;;;;17.23;13.75;;;;;;;12.05;63.86;100738.78;4986268;28;102651;-82
2022/04/06 05:03:24;;;;;;;15.07;13.20;;;;;;;12.05;64.20;100736.06;5000606;28;104269;-83
2022/04/06 05:05:53;;;;;;;17.57;13.73;;;;;;;12.05;64.06;100744.25;4990523;28;101939;-83
2022/04/06 05:08:21;;;;;;;15.55;13.73;;;;;;;12.05;64.00;100736.06;4974329;28;102240;-83
2022/04/06 05:10:50;;;;;;;14.50;13.00;;;;;;;12.05;64.04;100738.78;4981581;28;102228;-83
2022/04/06 05:13:29;;;;;;;14.27;12.77;;;;;;;12.06;63.96;100742.31;4990522;28;103835;-83
2022/04/06 05:16:01;;;;;;;16.50;13.85;;;;;;;12.06;63.70;100745.84;4975270;28;102097;-83
2022/04/06 05:18:29;;;;;;;15.80;14.20;;;;;;;12.07;64.14;100741.22;4975449;28;102082;-82
2022/04/06 05:20:56;;;;;;;18.08;14.10;;;;;;;12.07;63.90;100747.47;4976031;28;102257;-83
2022/04/06 05:23:22;;;;;;;16.88;14.20;;;;;;;12.09;63.90;100749.94;4976107;28;103926;-82
2022/04/06 05:25:49;;;;;;;15.88;13.57;;;;;;;12.08;63.91;100749.13;4975368;28;101903;-82
2022/04/06 05:28:18;;;;;;;;;;;;;;;12.11;63.65;100758.66;4975851;28;101969;-81
2022/04/06 05:30:46;;;;;;;15.60;13.48;;;;;;;12.10;63.87;100760.56;4991655;28;102115;-82
2022/04/06 05:33:12;;;;;;;14.98;12.63;;;;;;;12.12;63.68;100761.13;4993840;28;103906;-82
2022/04/06 05:35:40;;;;;;;16.02;14.15;;;;;;;12.13;63.95;100760.00;4993883;28;102219;-83
2022/04/06 05:38:07;;;;;;;18.08;13.85;;;;;;;12.15;63.68;100767.91;4993791;28;102528;-83
2022/04/06 05:40:38;;;;;;;16.10;14.40;;;;;;;12.16;63.66;100775.81;4988127;28;102568;-82
2022/04/06 05:43:04;;;;;;;16.27;13.50;;;;;;;12.18;63.55;100772.81;4990687;28;104095;-82
2022/04/06 05:45:31;;;;;;;18.45;13.93;;;;;;;12.20;63.77;100767.88;4988554;28;102056;-83
2022/04/06 05:47:58;;;;;;;15.48;13.02;;;;;;;12.20;63.41;100767.88;4990884;28;102498;-82
2022/04/06 05:50:24;;;;;;;16.95;13.60;;;;;;;12.22;63.45;100777.41;4992569;28;102355;-82
2022/04/06 05:52:53;;;;;;;16.33;13.48;;;;;;;12.23;63.56;100778.25;4992160;28;103851;-82
2022/04/06 05:55:20;;;;;;;14.85;13.07;;;;;;;12.23;63.69;100779.06;4987151;28;102520;-82
2022/04/06 05:57:49;;;;;;;14.55;12.98;;;;;;;12.25;63.42;100782.31;4991508;28;102485;-83
2022/04/06 06:00:17;;;;;;;15.55;12.65;;;;;;;12.25;63.56;100776.84;4986699;28;102785;-82
2022/04/06 06:02:45;;;;;;;14.38;12.88;;;;;;;12.28;63.48;100775.47;4987627;28;104125;-82
2022/04/06 06:05:13;;;;;;;14.15;12.50;;;;;;;12.28;63.55;100764.56;4986990;28;103572;-82
2022/04/06 06:07:40;;;;;;;14.40;12.65;;;;;;;12.31;63.75;100768.66;4989416;28;102540;-82
2022/04/06 06:10:12;;;;;;;13.10;11.65;;;;;;;12.30;63.57;100765.13;4990402;28;102075;-82
2022/04/06 06:12:40;;;;;;;15.57;13.40;;;;;;;12.32;63.54;100762.91;4988592;28;103863;-82
2022/04/06 06:15:07;;;;;;;13.85;12.02;;;;;;;12.34;63.57;100773.56;4985160;28;102531;-82
2022/04/06 06:17:38;;;;;;;14.55;12.02;;;;;;;12.33;63.36;100760.97;4991734;28;102123;-82
2022/04/06 06:20:05;;;;;;;14.85;12.07;;;;;;;12.35;63.56;100765.06;4993236;28;102468;-82
2022/04/06 06:22:32;;;;;;;13.07;11.65;;;;;;;12.35;63.50;100758.81;4982360;28;103982;-82
2022/04/06 06:24:59;;;;;;;13.27;11.43;;;;;;;12.36;63.70;100760.44;4974229;28;101964;-83
2022/04/06 06:27:27;;;;;;;19.75;14.07;;;;;;;12.38;63.40;100763.69;4988411;28;102440;-82
2022/04/06 06:29:54;;;;;;;18.38;14.20;;;;;;;12.38;63.47;100758.25;4988219;28;102498;-82
2022/04/06 06:32:20;;;;;;;17.10;13.02;;;;;;;12.39;63.21;100759.88;4986183;28;103958;-82
2022/04/06 06:34:47;;;;;;;16.08;12.60;;;;;;;12.41;63.37;100763.13;4991849;28;102449;-82
2022/04/06 06:37:13;;;;;;;13.85;12.00;;;;;;;12.41;63.27;100766.69;4992507;28;102069;-82
2022/04/06 06:39:40;;;;;;;14.60;12.13;;;;;;;12.41;63.11;100772.13;4993826;28;102377;-82
2022/04/06 06:42:08;;;;;;;15.52;12.18;;;;;;;12.43;63.36;100777.31;4991423;28;104100;-83
2022/04/06 06:44:36;;;;;;;15.68;12.40;;;;;;;12.43;63.42;100778.13;4993873;28;102284;-83
2022/04/06 06:47:03;;;;;;;13.25;11.27;;;;;;;12.46;63.31;100787.66;4987703;28;102266;-83
2022/04/06 06:49:29;;;;;;;12.65;11.35;;;;;;;12.46;63.38;100788.47;4988864;28;102479;-82
2022/04/06 06:51:56;;;;;;;13.48;11.20;;;;;;;12.46;63.44;100787.66;4992550;28;104300;-82
2022/04/06 06:54:22;;;;;;;14.02;12.10;;;;;;;12.48;63.18;100791.75;4988759;28;102551;-82
2022/04/06 06:56:49;;;;;;;13.20;11.27;;;;;;;12.48;63.24;100791.75;4974479;28;102373;-82
2022/04/06 06:59:15;;;;;;;15.18;11.35;;;;;;;12.50;63.12;100802.38;4982795;28;102675;-82
2022/04/06 07:01:44;;;;;;;12.82;10.77;;;;;;;12.51;63.18;100790.34;4983299;28;102962;-82
2022/04/06 07:04:11;;;;;;;12.43;11.13;;;;;;;12.52;63.17;100792.00;4980490;28;102047;-82
2022/04/06 07:06:38;;;;;;;14.40;10.98;;;;;;;12.54;63.25;100788.97;4979877;28;102141;-82
2022/04/06 07:09:05;;;;;;;11.77;10.50;;;;;;;12.54;63.28;100799.91;4988144;28;102443;-82
2022/04/06 07:11:31;;;;;;;13.02;10.55;;;;;;;12.56;63.18;100803.19;4981719;28;104133;-82
2022/04/06 07:13:58;;;;;;;13.82;10.75;;;;;;;12.56;63.33;100809.44;4987227;28;101981;-82
2022/04/06 07:16:27;;;;;;;;;;;;;;;12.57;63.08;100797.41;4990921;28;101917;-82
2022/04/06 07:18:55;;;;;;;12.32;10.73;;;;;;;12.59;63.09;100800.69;4988358;28;102005;-82
2022/04/06 07:21:37;;;;;;;13.45;10.32;;;;;;;12.60;63.25;100798.78;4990455;28;103051;-82
2022/04/06 07:24:04;;;;;;;11.50;10.23;;;;;;;12.61;63.14;100805.84;4975830;28;101958;-82
2022/04/06 07:26:30;;;;;;;12.63;10.63;;;;;;;12.60;63.16;100805.06;4983649;28;102067;-82
2022/04/06 07:28:58;;;;;;;11.05;9.90;;;;;;;12.62;63.18;100807.47;4980321;28;103179;-82
2022/04/06 07:31:25;;;;;;;11.88;9.65;;;;;;;12.63;63.19;100811.88;4978181;28;103811;-82
2022/04/06 07:33:55;;;;;;;12.52;10.60;;;;;;;12.62;63.27;100805.59;4990526;28;102037;-82
2022/04/06 07:36:23;;;;;;;;;;;;;;;12.64;62.95;100805.31;4974275;28;102355;-82
2022/04/06 07:38:49;;;;;;;9.68;8.68;;;;;;;12.65;62.92;100809.66;4975833;28;102548;-82
2022/04/06 07:41:16;;;;;;;10.45;9.35;;;;;;;12.67;63.19;100812.94;4975991;28;103495;-82
2022/04/06 07:43:44;;;;;;;12.70;9.07;;;;;;;12.67;63.06;100812.94;4994843;28;101887;-82
2022/04/06 07:46:11;;;;;;;10.05;8.63;;;;;;;12.67;62.76;100811.00;4992212;28;102429;-82
2022/04/06 07:48:39;;;;;;;9.90;8.90;;;;;;;12.68;62.88;100818.09;4989985;28;102250;-82
2022/04/06 07:51:07;;;;;;;11.15;8.82;;;;;;;12.69;62.94;100818.91;4987553;28;104322;-82
2022/04/06 07:53:36;;;;;;;12.50;9.30;;;;;;;12.71;62.80;100809.34;4988717;28;102608;-85
2022/04/06 07:56:05;;;;;;;11.15;9.30;;;;;;;12.72;62.69;100810.16;4991829;28;102610;-85
2022/04/06 07:58:31;;;;;;;10.83;8.60;;;;;;;12.75;62.75;100817.78;4990534;28;102093;-84
2022/04/06 08:01:01;;;;;;;9.25;8.23;;;;;;;12.75;62.58;100813.13;4976969;28;103997;-85
2022/04/06 08:03:27;;;;;;;;;;;;;;;12.78;62.64;100811.75;4987353;28;102311;-84
2022/04/06 08:05:54;;;;;;;10.38;8.43;;;;;;;12.77;62.57;100815.59;5002566;28;102134;-84
2022/04/06 08:08:24;;;;;;;9.50;8.48;;;;;;;12.79;62.44;100818.03;4992098;28;102759;-85
2022/04/06 08:11:05;;;;;;;9.38;8.35;;;;;;;12.80;62.29;100815.00;4985313;28;103502;-85
2022/04/06 08:13:32;;;;;;;9.75;8.00;;;;;;;12.81;62.37;100815.84;4991205;28;102202;-84
2022/04/06 08:16:09;;;;;;;9.68;8.55;;;;;;;12.82;62.41;100809.28;4986366;28;102400;-85
2022/04/06 08:18:43;;;;;;;10.75;9.02;;;;;;;12.83;62.11;100811.72;4989636;28;102792;-86
2022/04/06 08:21:10;;;;;;;9.82;8.60;;;;;;;12.85;62.54;100811.44;4993207;28;104197;-86
2022/04/06 08:23:38;;;;;;;9.77;8.27;;;;;;;12.85;62.50;100811.44;4990549;28;102185;-86
2022/04/06 08:26:06;;;;;;;9.00;8.00;;;;;;;12.86;62.15;100807.59;4975744;28;101796;-84
2022/04/06 08:28:33;;;;;;;8.35;7.45;;;;;;;12.88;62.21;100813.63;4979274;28;102286;-84
2022/04/06 08:30:59;;;;;;;9.43;8.43;;;;;;;12.88;62.28;100805.41;4993422;28;104247;-85
2022/04/06 08:33:26;;;;;;;8.63;7.75;;;;;;;12.87;62.25;100806.50;4995763;28;102344;-84
2022/04/06 08:35:52;;;;;;;10.88;8.55;;;;;;;12.88;61.93;100799.94;4993930;28;102022;-84
2022/04/06 08:38:19;;;;;;;8.45;7.53;;;;;;;12.88;62.50;100805.41;4995658;28;102428;-84
2022/04/06 08:40:48;;;;;;;9.32;7.53;;;;;;;12.89;62.20;100801.56;4994090;28;103937;-85
2022/04/06 08:46:40;;;;;;;9.40;7.60;;;;;;;12.91;62.22;100799.34;4975393;28;104017;-87
2022/04/06 08:49:27;;;;;;;7.97;7.28;;;;;;;12.91;62.06;100802.09;4993941;28;102131;-88
2022/04/06 08:52:06;;;;;;;10.05;8.30;;;;;;;12.90;62.08;100803.19;4991076;28;104096;-87
2022/04/06 08:54:33;;;;;;;9.07;8.18;;;;;;;12.90;62.01;100804.00;4981374;28;102335;-87
2022/04/06 08:57:03;;;;;;;8.43;7.38;;;;;;;12.91;62.20;100800.19;4990962;28;102031;-85
2022/04/06 08:59:29;;;;;;;8.43;7.53;;;;;;;12.92;61.95;100801.00;4993365;28;102749;-86
2022/04/06 09:01:58;;;;;;;8.68;7.45;;;;;;;12.93;61.86;100808.09;4988134;28;104377;-85
2022/04/06 09:04:26;;;;;;;8.70;7.80;;;;;;;12.94;62.02;100810.53;4984551;28;102431;-85
2022/04/06 09:06:53;;;;;;;8.35;7.53;;;;;;;12.95;61.43;100808.63;5003516;28;102389;-86
2022/04/06 09:09:21;;;;;;;8.25;7.13;;;;;;;12.95;61.73;100804.00;4982367;28;102776;-85
2022/04/06 09:11:48;;;;;;;9.93;7.72;;;;;;;12.95;61.45;100801.25;4983011;28;103948;-85
2022/04/06 09:14:29;;;;;;;9.40;7.35;;;;;;;12.94;61.63;100794.13;4990536;28;102599;-85
2022/04/06 09:17:01;;;;;;;9.82;7.38;;;;;;;12.94;61.74;100787.88;4994020;28;102131;-85
2022/04/06 09:19:28;;;;;;;7.55;6.85;;;;;;;12.94;61.51;100796.88;4993929;28;102676;-85
2022/04/06 09:21:56;;;;;;;7.88;6.68;;;;;;;12.95;61.12;100800.44;4993255;28;104190;-86
2022/04/06 09:24:26;;;;;;;7.73;6.83;;;;;;;12.95;61.02;100795.78;4990693;28;102265;-86
2022/04/06 09:27:01;;;;;;;8.63;7.72;;;;;;;12.96;60.93;100807.53;4980155;28;102479;-86
2022/04/06 09:29:35;;;;;;;7.95;6.72;;;;;;;12.95;61.11;100808.63;4991220;28;102254;-87
2022/04/06 09:32:07;;;;;;;9.93;7.35;;;;;;;12.95;60.92;100797.72;4971540;28;103628;-86
2022/04/06 09:34:38;;;;;;;9.07;6.88;;;;;;;12.95;60.90;100794.97;4991006;28;102151;-85
2022/04/06 09:37:22;;;;;;;7.60;6.32;;;;;;;12.95;60.96;100806.72;4989286;28;102394;-85
2022/04/06 09:39:49;;;;;;;8.98;6.88;;;;;;;12.95;60.64;100805.91;5000593;28;102168;-86
2022/04/06 09:42:24;;;;;;;6.68;6.07;;;;;;;12.96;60.38;100804.81;4987882;28;104184;-85
2022/04/06 09:47:39;;;;;;;7.68;6.18;;;;;;;12.94;60.10;100798.78;4991343;28;102273;-84
2022/04/06 09:50:12;;;;;;;7.03;6.15;;;;;;;12.94;60.64;100804.25;4992167;28;102515;-88
2022/04/06 09:52:41;;;;;;;7.25;6.47;;;;;;;12.93;60.67;100803.44;4990437;28;104891;-86
2022/04/06 09:55:12;;;;;;;6.80;6.07;;;;;;;12.93;59.93;100797.16;4992103;28;102116;-85
2022/04/06 09:57:45;;;;;;;6.65;5.93;;;;;;;12.93;59.99;100808.09;4989061;28;102174;-84
2022/04/06 10:00:16;;;;;;;7.38;5.90;;;;;;;12.94;60.02;100798.78;4988696;28;102496;-84
2022/04/06 10:02:47;;;;;;;8.07;6.20;;;;;;;12.93;60.00;100797.16;4988787;28;103931;-84
2022/04/06 10:05:14;;;;;;;6.30;5.65;;;;;;;12.94;59.52;100801.53;4985698;28;102285;-84
2022/04/06 10:07:43;;;;;;;7.03;5.88;;;;;;;12.92;59.63;100795.56;4972208;28;102738;-84
2022/04/06 10:10:13;;;;;;;6.30;5.68;;;;;;;12.92;59.46;100793.63;4974007;28;102544;-83
2022/04/06 10:12:41;;;;;;;7.03;5.70;;;;;;;12.92;59.95;100792.81;4971362;28;103890;-84
2022/04/06 10:15:08;;;;;;;6.82;5.70;;;;;;;12.91;59.67;100793.91;4973412;28;101982;-84
2022/04/06 10:17:36;;;;;;;6.07;5.47;;;;;;;12.90;59.87;100792.28;4972753;28;101946;-84
2022/04/06 10:20:11;;;;;;;6.23;5.40;;;;;;;12.90;60.11;100792.28;4974403;28;102173;-84
2022/04/06 10:23:06;;;;;;;6.50;5.80;;;;;;;12.91;59.72;100799.34;4985784;28;103961;-84
2022/04/06 10:25:47;;;;;;;5.85;5.07;;;;;;;12.90;59.60;100795.00;4973427;28;101950;-84
2022/04/06 10:28:16;;;;;;;7.43;5.50;;;;;;;12.90;59.36;100803.19;4973018;28;101985;-84
2022/04/06 10:31:15;;;;;;;6.25;5.57;;;;;;;12.90;59.64;100797.75;4974251;28;102483;-83
2022/04/06 10:33:44;;;;;;;7.32;5.65;;;;;;;12.88;59.39;100794.50;4972920;28;103980;-84
2022/04/06 10:36:20;;;;;;;7.70;5.50;;;;;;;12.88;59.99;100799.94;4973105;28;102161;-83
2022/04/06 10:39:12;;;;;;;8.48;5.03;;;;;;;12.88;60.00;100794.50;4972263;28;102537;-84
2022/04/06 10:41:41;;;;;;;7.00;4.97;;;;;;;12.88;59.22;100799.94;4964380;28;102473;-84
2022/04/06 10:44:08;;;;;;;6.97;4.72;;;;;;;12.88;59.00;100797.22;4972746;28;104060;-84
2022/04/06 10:46:40;;;;;;;5.88;5.28;;;;;;;12.87;58.87;100803.75;4973720;28;102801;-83
2022/04/06 10:49:14;;;;;;;6.53;5.00;;;;;;;12.87;59.05;100798.31;4991867;28;102104;-84
2022/04/06 10:51:42;;;;;;;6.03;5.43;;;;;;;12.87;59.08;100803.75;4974845;28;102036;-84
2022/04/06 10:54:39;;;;;;;6.72;5.35;;;;;;;12.86;59.44;100796.69;4973010;28;103880;-84
2022/04/06 10:57:06;;;;;;;8.27;6.03;;;;;;;12.85;59.08;100806.78;4981504;28;103001;-84
2022/04/06 10:59:35;;;;;;;7.68;6.25;;;;;;;12.85;59.06;100806.78;4980438;28;102676;-84
2022/04/06 11:02:23;;;;;;;7.18;6.28;;;;;;;12.85;59.31;100808.72;4979562;28;102339;-84
2022/04/06 11:04:52;;;;;;;7.00;5.57;;;;;;;12.83;59.38;100802.72;4981054;28;104087;-83
2022/04/06 11:10:06;;;;;;;7.68;5.95;;;;;;;12.84;59.74;100812.53;4972776;28;102413;-84
2022/04/06 11:10:15;;;;;;;6.53;5.18;;;;;;;12.83;59.21;100805.44;4976924;28;101981;-84
2022/04/06 11:12:58;;;;;;;6.60;5.13;;;;;;;12.82;59.51;100796.44;4985905;28;102612;-84
2022/04/06 11:15:37;;;;;;;7.78;6.25;;;;;;;12.82;59.56;100803.81;4986688;28;104132;-84
2022/04/06 11:18:06;;;;;;;8.57;5.80;;;;;;;12.81;59.42;100797.53;4978819;28;102585;-84
2022/04/06 11:20:34;;;;;;;7.33;5.07;;;;;;;12.80;59.63;100789.63;4972791;28;102444;-84
2022/04/06 11:23:02;;;;;;;6.32;5.70;;;;;;;12.81;59.62;100800.28;4973332;28;102182;-84
2022/04/06 11:25:30;;;;;;;9.20;5.50;;;;;;;12.79;59.54;100794.25;4973092;28;104324;-84
2022/04/06 11:28:07;;;;;;;7.40;5.25;;;;;;;12.80;59.54;100797.81;4972624;28;102496;-84